sensor_id;sensor_type;location;lat;lon;timestamp;temperature;humidity
12726;DHT22;6427;49.754;6.106;2022-08-16T00:00:07;19.70;99.90
12726;DHT22;6427;49.754;6.106;2022-08-16T00:02:34;19.90;99.90
12726;DHT22;6427;49.754;6.106;2022-08-16T00:05:03;19.80;99.90
12726;DHT22;6427;49.754;6.106;2022-08-16T00:07:29;19.70;99.90
12726;DHT22;6427;49.754;6.106;2022-08-16T00:09:57;19.60;99.90
12726;DHT22;6427;49.754;6.106;2022-08-16T00:12:26;19.50;99.90
12726;DHT22;6427;49.754;6.106;2022-08-16T00:14:52;19.40;99.90
12726;DHT22;6427;49.754;6.106;2022-08-16T00:17:20;19.30;99.90
12726;DHT22;6427;49.754;6.106;2022-08-16T00:19:47;19.30;99.90
12726;DHT22;6427;49.754;6.106;2022-08-16T00:22:15;19.30;99.90
12726;DHT22;6427;49.754;6.106;2022-08-16T00:24:43;19.50;99.90
12726;DHT22;6427;49.754;6.106;2022-08-16T00:27:10;19.40;99.90
12726;DHT22;6427;49.754;6.106;2022-08-16T00:29:38;19.40;99.90
12726;DHT22;6427;49.754;6.106;2022-08-16T00:32:05;19.30;99.90
12726;DHT22;6427;49.754;6.106;2022-08-16T00:34:35;19.30;99.90
12726;DHT22;6427;49.754;6.106;2022-08-16T00:37:02;19.30;99.90
12726;DHT22;6427;49.754;6.106;2022-08-16T00:39:29;19.30;99.90
12726;DHT22;6427;49.754;6.106;2022-08-16T00:41:57;19.20;99.90
12726;DHT22;6427;49.754;6.106;2022-08-16T00:44:25;19.20;99.90
12726;DHT22;6427;49.754;6.106;2022-08-16T00:46:56;19.20;99.90
12726;DHT22;6427;49.754;6.106;2022-08-16T00:49:23;19.20;99.90
12726;DHT22;6427;49.754;6.106;2022-08-16T00:51:50;19.20;99.90
12726;DHT22;6427;49.754;6.106;2022-08-16T00:54:17;19.40;99.90
12726;DHT22;6427;49.754;6.106;2022-08-16T00:56:46;19.40;99.90
12726;DHT22;6427;49.754;6.106;2022-08-16T00:59:12;19.30;99.90
12726;DHT22;6427;49.754;6.106;2022-08-16T01:01:40;19.20;99.90
12726;DHT22;6427;49.754;6.106;2022-08-16T01:04:07;19.20;99.90
12726;DHT22;6427;49.754;6.106;2022-08-16T01:06:35;19.10;99.90
12726;DHT22;6427;49.754;6.106;2022-08-16T01:09:03;19.10;99.90
12726;DHT22;6427;49.754;6.106;2022-08-16T01:11:30;19.00;99.90
12726;DHT22;6427;49.754;6.106;2022-08-16T01:14:12;19.00;99.90
12726;DHT22;6427;49.754;6.106;2022-08-16T01:16:37;18.90;99.90
12726;DHT22;6427;49.754;6.106;2022-08-16T01:19:25;18.90;99.90
12726;DHT22;6427;49.754;6.106;2022-08-16T01:22:01;18.80;99.90
12726;DHT22;6427;49.754;6.106;2022-08-16T01:24:34;19.00;99.90
12726;DHT22;6427;49.754;6.106;2022-08-16T01:27:06;19.10;99.90
12726;DHT22;6427;49.754;6.106;2022-08-16T01:29:46;18.90;99.90
12726;DHT22;6427;49.754;6.106;2022-08-16T01:32:12;18.80;99.90
12726;DHT22;6427;49.754;6.106;2022-08-16T01:34:40;18.80;99.90
12726;DHT22;6427;49.754;6.106;2022-08-16T01:37:08;18.70;99.90
12726;DHT22;6427;49.754;6.106;2022-08-16T01:39:35;18.60;99.90
12726;DHT22;6427;49.754;6.106;2022-08-16T01:42:04;18.50;99.90
12726;DHT22;6427;49.754;6.106;2022-08-16T01:44:30;18.70;99.90
12726;DHT22;6427;49.754;6.106;2022-08-16T01:46:58;18.60;99.90
12726;DHT22;6427;49.754;6.106;2022-08-16T01:49:27;18.50;99.90
12726;DHT22;6427;49.754;6.106;2022-08-16T01:51:55;18.40;99.90
12726;DHT22;6427;49.754;6.106;2022-08-16T01:54:21;18.40;99.90
12726;DHT22;6427;49.754;6.106;2022-08-16T01:56:48;18.30;99.90
12726;DHT22;6427;49.754;6.106;2022-08-16T01:59:17;18.10;99.90
12726;DHT22;6427;49.754;6.106;2022-08-16T02:01:45;18.10;99.90
12726;DHT22;6427;49.754;6.106;2022-08-16T02:04:12;18.10;99.90
12726;DHT22;6427;49.754;6.106;2022-08-16T02:06:40;18.00;99.90
12726;DHT22;6427;49.754;6.106;2022-08-16T02:09:08;18.00;99.90
12726;DHT22;6427;49.754;6.106;2022-08-16T02:11:35;18.20;99.90
12726;DHT22;6427;49.754;6.106;2022-08-16T02:14:04;18.10;99.90
12726;DHT22;6427;49.754;6.106;2022-08-16T02:16:32;18.00;99.90
12726;DHT22;6427;49.754;6.106;2022-08-16T02:19:00;18.00;99.90
12726;DHT22;6427;49.754;6.106;2022-08-16T02:21:27;18.00;99.90
12726;DHT22;6427;49.754;6.106;2022-08-16T02:23:56;17.80;99.90
12726;DHT22;6427;49.754;6.106;2022-08-16T02:26:23;17.80;99.90
12726;DHT22;6427;49.754;6.106;2022-08-16T02:28:51;17.80;99.90
12726;DHT22;6427;49.754;6.106;2022-08-16T02:31:18;17.70;99.90
12726;DHT22;6427;49.754;6.106;2022-08-16T02:33:47;17.60;99.90
12726;DHT22;6427;49.754;6.106;2022-08-16T02:36:14;17.60;99.90
12726;DHT22;6427;49.754;6.106;2022-08-16T02:38:42;17.60;99.90
12726;DHT22;6427;49.754;6.106;2022-08-16T02:41:09;17.50;99.90
12726;DHT22;6427;49.754;6.106;2022-08-16T02:43:37;17.50;99.90
12726;DHT22;6427;49.754;6.106;2022-08-16T02:46:06;17.70;99.90
12726;DHT22;6427;49.754;6.106;2022-08-16T02:48:33;17.60;99.90
12726;DHT22;6427;49.754;6.106;2022-08-16T02:51:01;17.60;99.90
12726;DHT22;6427;49.754;6.106;2022-08-16T02:53:29;17.80;99.90
12726;DHT22;6427;49.754;6.106;2022-08-16T02:55:56;17.80;99.90
12726;DHT22;6427;49.754;6.106;2022-08-16T02:58:24;17.70;99.90
12726;DHT22;6427;49.754;6.106;2022-08-16T03:00:54;17.70;99.90
12726;DHT22;6427;49.754;6.106;2022-08-16T03:03:22;17.60;99.90
12726;DHT22;6427;49.754;6.106;2022-08-16T03:05:50;17.80;99.90
12726;DHT22;6427;49.754;6.106;2022-08-16T03:08:17;17.80;99.90
12726;DHT22;6427;49.754;6.106;2022-08-16T03:10:45;18.00;99.90
12726;DHT22;6427;49.754;6.106;2022-08-16T03:13:12;17.90;99.90
12726;DHT22;6427;49.754;6.106;2022-08-16T03:15:40;17.80;99.90
12726;DHT22;6427;49.754;6.106;2022-08-16T03:18:07;17.70;99.90
12726;DHT22;6427;49.754;6.106;2022-08-16T03:20:35;17.60;99.90
12726;DHT22;6427;49.754;6.106;2022-08-16T03:23:03;17.80;99.90
12726;DHT22;6427;49.754;6.106;2022-08-16T03:25:31;17.80;99.90
12726;DHT22;6427;49.754;6.106;2022-08-16T03:27:58;17.70;99.90
12726;DHT22;6427;49.754;6.106;2022-08-16T03:30:28;17.50;99.90
12726;DHT22;6427;49.754;6.106;2022-08-16T03:32:54;17.50;99.90
12726;DHT22;6427;49.754;6.106;2022-08-16T03:35:24;17.50;99.90
12726;DHT22;6427;49.754;6.106;2022-08-16T03:37:52;17.40;99.90
12726;DHT22;6427;49.754;6.106;2022-08-16T03:40:17;17.40;99.90
12726;DHT22;6427;49.754;6.106;2022-08-16T03:42:44;17.50;99.90
12726;DHT22;6427;49.754;6.106;2022-08-16T03:45:12;17.70;99.90
12726;DHT22;6427;49.754;6.106;2022-08-16T03:47:39;17.90;99.90
12726;DHT22;6427;49.754;6.106;2022-08-16T03:50:08;18.00;99.90
12726;DHT22;6427;49.754;6.106;2022-08-16T03:52:35;17.80;99.90
12726;DHT22;6427;49.754;6.106;2022-08-16T03:55:03;17.70;99.90
12726;DHT22;6427;49.754;6.106;2022-08-16T03:57:30;17.50;99.90
12726;DHT22;6427;49.754;6.106;2022-08-16T03:59:58;17.40;99.90
12726;DHT22;6427;49.754;6.106;2022-08-16T04:02:25;17.50;99.90
12726;DHT22;6427;49.754;6.106;2022-08-16T04:04:53;17.50;99.90
12726;DHT22;6427;49.754;6.106;2022-08-16T04:07:21;17.30;99.90
12726;DHT22;6427;49.754;6.106;2022-08-16T04:09:48;17.20;99.90
12726;DHT22;6427;49.754;6.106;2022-08-16T04:12:16;17.10;99.90
12726;DHT22;6427;49.754;6.106;2022-08-16T04:14:43;17.00;99.90
12726;DHT22;6427;49.754;6.106;2022-08-16T04:17:11;17.20;99.90
12726;DHT22;6427;49.754;6.106;2022-08-16T04:19:38;17.10;99.90
12726;DHT22;6427;49.754;6.106;2022-08-16T04:22:06;17.10;99.90
12726;DHT22;6427;49.754;6.106;2022-08-16T04:24:34;16.90;99.90
12726;DHT22;6427;49.754;6.106;2022-08-16T04:27:01;16.90;99.90
12726;DHT22;6427;49.754;6.106;2022-08-16T04:29:29;16.80;99.90
12726;DHT22;6427;49.754;6.106;2022-08-16T04:31:56;16.70;99.90
12726;DHT22;6427;49.754;6.106;2022-08-16T04:34:25;16.90;99.90
12726;DHT22;6427;49.754;6.106;2022-08-16T04:36:52;17.20;99.90
12726;DHT22;6427;49.754;6.106;2022-08-16T04:39:19;17.10;99.90
12726;DHT22;6427;49.754;6.106;2022-08-16T04:41:47;17.00;99.90
12726;DHT22;6427;49.754;6.106;2022-08-16T04:44:14;16.90;99.90
12726;DHT22;6427;49.754;6.106;2022-08-16T04:46:42;16.80;99.90
12726;DHT22;6427;49.754;6.106;2022-08-16T04:49:09;16.80;99.90
12726;DHT22;6427;49.754;6.106;2022-08-16T04:51:37;16.70;99.90
12726;DHT22;6427;49.754;6.106;2022-08-16T04:54:05;16.70;99.90
12726;DHT22;6427;49.754;6.106;2022-08-16T04:56:32;16.70;99.90
12726;DHT22;6427;49.754;6.106;2022-08-16T04:59:02;16.70;99.90
12726;DHT22;6427;49.754;6.106;2022-08-16T05:01:29;16.70;99.90
12726;DHT22;6427;49.754;6.106;2022-08-16T05:03:56;16.90;99.90
12726;DHT22;6427;49.754;6.106;2022-08-16T05:06:25;16.90;99.90
12726;DHT22;6427;49.754;6.106;2022-08-16T05:08:52;16.90;99.90
12726;DHT22;6427;49.754;6.106;2022-08-16T05:11:20;16.90;99.90
12726;DHT22;6427;49.754;6.106;2022-08-16T05:13:48;16.80;99.90
12726;DHT22;6427;49.754;6.106;2022-08-16T05:16:22;16.80;99.90
12726;DHT22;6427;49.754;6.106;2022-08-16T05:18:44;17.10;99.90
12726;DHT22;6427;49.754;6.106;2022-08-16T05:21:12;17.00;99.90
12726;DHT22;6427;49.754;6.106;2022-08-16T05:23:39;17.10;99.90
12726;DHT22;6427;49.754;6.106;2022-08-16T05:26:07;17.30;99.90
12726;DHT22;6427;49.754;6.106;2022-08-16T05:28:35;17.30;99.90
12726;DHT22;6427;49.754;6.106;2022-08-16T05:31:03;17.30;99.90
12726;DHT22;6427;49.754;6.106;2022-08-16T05:33:30;17.20;99.90
12726;DHT22;6427;49.754;6.106;2022-08-16T05:35:58;17.20;99.90
12726;DHT22;6427;49.754;6.106;2022-08-16T05:38:25;17.20;99.90
12726;DHT22;6427;49.754;6.106;2022-08-16T05:40:56;17.20;99.90
12726;DHT22;6427;49.754;6.106;2022-08-16T05:43:24;17.20;99.90
12726;DHT22;6427;49.754;6.106;2022-08-16T05:45:52;17.10;99.90
12726;DHT22;6427;49.754;6.106;2022-08-16T05:48:19;17.20;99.90
12726;DHT22;6427;49.754;6.106;2022-08-16T05:50:47;17.30;99.90
12726;DHT22;6427;49.754;6.106;2022-08-16T05:53:14;17.30;99.90
12726;DHT22;6427;49.754;6.106;2022-08-16T05:55:43;17.40;99.90
12726;DHT22;6427;49.754;6.106;2022-08-16T05:58:10;17.40;99.90
12726;DHT22;6427;49.754;6.106;2022-08-16T06:00:38;17.50;99.90
12726;DHT22;6427;49.754;6.106;2022-08-16T06:03:05;17.60;99.90
12726;DHT22;6427;49.754;6.106;2022-08-16T06:05:33;17.90;99.90
12726;DHT22;6427;49.754;6.106;2022-08-16T06:08:01;17.90;99.90
12726;DHT22;6427;49.754;6.106;2022-08-16T06:10:28;18.20;99.90
12726;DHT22;6427;49.754;6.106;2022-08-16T06:12:56;18.20;99.90
12726;DHT22;6427;49.754;6.106;2022-08-16T06:15:24;18.20;99.90
12726;DHT22;6427;49.754;6.106;2022-08-16T06:17:52;18.30;99.90
12726;DHT22;6427;49.754;6.106;2022-08-16T06:20:21;18.20;99.90
12726;DHT22;6427;49.754;6.106;2022-08-16T06:22:49;18.30;99.90
12726;DHT22;6427;49.754;6.106;2022-08-16T06:25:16;18.30;99.90
12726;DHT22;6427;49.754;6.106;2022-08-16T06:27:44;18.40;99.90
12726;DHT22;6427;49.754;6.106;2022-08-16T06:30:12;18.40;99.90
12726;DHT22;6427;49.754;6.106;2022-08-16T06:32:39;18.40;99.90
12726;DHT22;6427;49.754;6.106;2022-08-16T06:35:08;19.00;99.90
12726;DHT22;6427;49.754;6.106;2022-08-16T06:37:36;18.90;99.90
12726;DHT22;6427;49.754;6.106;2022-08-16T06:40:04;18.90;99.90
12726;DHT22;6427;49.754;6.106;2022-08-16T06:42:32;18.90;99.90
12726;DHT22;6427;49.754;6.106;2022-08-16T06:45:00;18.90;99.90
12726;DHT22;6427;49.754;6.106;2022-08-16T06:47:27;18.90;99.90
12726;DHT22;6427;49.754;6.106;2022-08-16T06:49:55;18.90;99.90
12726;DHT22;6427;49.754;6.106;2022-08-16T06:52:23;18.90;99.90
12726;DHT22;6427;49.754;6.106;2022-08-16T06:54:50;18.90;99.90
12726;DHT22;6427;49.754;6.106;2022-08-16T06:57:18;19.00;99.90
12726;DHT22;6427;49.754;6.106;2022-08-16T06:59:46;19.00;99.90
12726;DHT22;6427;49.754;6.106;2022-08-16T07:02:13;19.00;99.90
12726;DHT22;6427;49.754;6.106;2022-08-16T07:04:42;19.10;99.90
12726;DHT22;6427;49.754;6.106;2022-08-16T07:07:09;19.00;99.90
12726;DHT22;6427;49.754;6.106;2022-08-16T07:09:37;19.10;99.90
12726;DHT22;6427;49.754;6.106;2022-08-16T07:12:05;19.40;99.90
12726;DHT22;6427;49.754;6.106;2022-08-16T07:14:32;19.40;99.90
12726;DHT22;6427;49.754;6.106;2022-08-16T07:17:00;19.50;99.90
12726;DHT22;6427;49.754;6.106;2022-08-16T07:19:29;19.60;99.90
12726;DHT22;6427;49.754;6.106;2022-08-16T07:21:56;19.60;99.90
12726;DHT22;6427;49.754;6.106;2022-08-16T07:24:23;19.70;99.90
12726;DHT22;6427;49.754;6.106;2022-08-16T07:26:51;19.80;99.90
12726;DHT22;6427;49.754;6.106;2022-08-16T07:29:18;19.80;99.90
12726;DHT22;6427;49.754;6.106;2022-08-16T07:31:46;19.90;99.90
12726;DHT22;6427;49.754;6.106;2022-08-16T07:34:14;20.10;99.90
12726;DHT22;6427;49.754;6.106;2022-08-16T07:36:41;20.30;99.90
12726;DHT22;6427;49.754;6.106;2022-08-16T07:39:09;20.40;99.90
12726;DHT22;6427;49.754;6.106;2022-08-16T07:41:36;20.50;99.90
12726;DHT22;6427;49.754;6.106;2022-08-16T07:44:05;20.70;99.90
12726;DHT22;6427;49.754;6.106;2022-08-16T07:46:32;20.70;99.90
12726;DHT22;6427;49.754;6.106;2022-08-16T07:49:01;20.90;99.90
12726;DHT22;6427;49.754;6.106;2022-08-16T07:51:29;20.90;99.90
12726;DHT22;6427;49.754;6.106;2022-08-16T07:53:56;21.00;99.90
12726;DHT22;6427;49.754;6.106;2022-08-16T07:56:23;21.10;99.90
12726;DHT22;6427;49.754;6.106;2022-08-16T07:58:51;21.20;99.90
12726;DHT22;6427;49.754;6.106;2022-08-16T08:01:19;21.30;99.90
12726;DHT22;6427;49.754;6.106;2022-08-16T08:03:46;21.30;99.90
12726;DHT22;6427;49.754;6.106;2022-08-16T08:06:17;21.40;99.90
12726;DHT22;6427;49.754;6.106;2022-08-16T08:08:44;21.50;99.90
12726;DHT22;6427;49.754;6.106;2022-08-16T08:11:13;21.60;99.90
12726;DHT22;6427;49.754;6.106;2022-08-16T08:13:40;21.70;99.90
12726;DHT22;6427;49.754;6.106;2022-08-16T08:16:08;21.80;99.90
12726;DHT22;6427;49.754;6.106;2022-08-16T08:18:36;21.90;99.90
12726;DHT22;6427;49.754;6.106;2022-08-16T08:21:04;21.90;99.90
12726;DHT22;6427;49.754;6.106;2022-08-16T08:23:32;22.00;99.90
12726;DHT22;6427;49.754;6.106;2022-08-16T08:25:59;22.10;99.90
12726;DHT22;6427;49.754;6.106;2022-08-16T08:28:27;22.20;99.90
12726;DHT22;6427;49.754;6.106;2022-08-16T08:30:54;22.20;99.90
12726;DHT22;6427;49.754;6.106;2022-08-16T08:33:22;22.20;99.90
12726;DHT22;6427;49.754;6.106;2022-08-16T08:35:49;22.30;99.90
12726;DHT22;6427;49.754;6.106;2022-08-16T08:38:17;22.40;99.90
12726;DHT22;6427;49.754;6.106;2022-08-16T08:40:45;22.40;99.90
12726;DHT22;6427;49.754;6.106;2022-08-16T08:43:12;22.40;99.90
12726;DHT22;6427;49.754;6.106;2022-08-16T08:45:40;22.70;99.90
12726;DHT22;6427;49.754;6.106;2022-08-16T08:48:07;22.70;99.90
12726;DHT22;6427;49.754;6.106;2022-08-16T08:50:35;22.80;99.90
12726;DHT22;6427;49.754;6.106;2022-08-16T08:53:03;22.80;99.90
12726;DHT22;6427;49.754;6.106;2022-08-16T08:55:30;22.90;99.90
12726;DHT22;6427;49.754;6.106;2022-08-16T08:57:58;23.00;99.90
12726;DHT22;6427;49.754;6.106;2022-08-16T09:00:26;23.20;99.30
12726;DHT22;6427;49.754;6.106;2022-08-16T09:02:54;23.10;99.60
12726;DHT22;6427;49.754;6.106;2022-08-16T09:05:22;23.20;99.00
12726;DHT22;6427;49.754;6.106;2022-08-16T09:07:49;23.30;98.80
12726;DHT22;6427;49.754;6.106;2022-08-16T09:10:17;23.40;98.10
12726;DHT22;6427;49.754;6.106;2022-08-16T09:12:44;23.50;97.10
12726;DHT22;6427;49.754;6.106;2022-08-16T09:15:12;23.70;95.60
12726;DHT22;6427;49.754;6.106;2022-08-16T09:17:40;24.10;95.30
12726;DHT22;6427;49.754;6.106;2022-08-16T09:20:08;24.10;95.30
12726;DHT22;6427;49.754;6.106;2022-08-16T09:22:35;24.20;94.90
12726;DHT22;6427;49.754;6.106;2022-08-16T09:25:03;24.30;94.10
12726;DHT22;6427;49.754;6.106;2022-08-16T09:27:30;24.40;92.90
12726;DHT22;6427;49.754;6.106;2022-08-16T09:29:59;24.70;90.20
12726;DHT22;6427;49.754;6.106;2022-08-16T09:32:30;24.70;90.10
12726;DHT22;6427;49.754;6.106;2022-08-16T09:34:54;24.80;89.60
12726;DHT22;6427;49.754;6.106;2022-08-16T09:37:21;25.00;88.90
12726;DHT22;6427;49.754;6.106;2022-08-16T09:39:50;25.10;87.80
12726;DHT22;6427;49.754;6.106;2022-08-16T09:42:17;25.10;87.80
12726;DHT22;6427;49.754;6.106;2022-08-16T09:44:45;25.20;87.30
12726;DHT22;6427;49.754;6.106;2022-08-16T09:47:12;25.30;86.10
12726;DHT22;6427;49.754;6.106;2022-08-16T09:49:40;25.30;85.20
12726;DHT22;6427;49.754;6.106;2022-08-16T09:52:08;25.40;84.10
12726;DHT22;6427;49.754;6.106;2022-08-16T09:54:36;25.40;82.40
12726;DHT22;6427;49.754;6.106;2022-08-16T09:57:03;25.30;82.20
12726;DHT22;6427;49.754;6.106;2022-08-16T09:59:31;25.40;82.10
12726;DHT22;6427;49.754;6.106;2022-08-16T10:01:59;25.60;81.00
12726;DHT22;6427;49.754;6.106;2022-08-16T10:04:26;25.90;78.20
12726;DHT22;6427;49.754;6.106;2022-08-16T10:06:54;25.90;77.00
12726;DHT22;6427;49.754;6.106;2022-08-16T10:09:22;25.90;76.90
12726;DHT22;6427;49.754;6.106;2022-08-16T10:11:50;25.90;76.80
12726;DHT22;6427;49.754;6.106;2022-08-16T10:14:35;26.10;74.50
12726;DHT22;6427;49.754;6.106;2022-08-16T10:17:03;26.40;73.20
12726;DHT22;6427;49.754;6.106;2022-08-16T10:19:31;26.40;72.80
12726;DHT22;6427;49.754;6.106;2022-08-16T10:21:59;26.40;73.80
12726;DHT22;6427;49.754;6.106;2022-08-16T10:24:26;26.30;73.00
12726;DHT22;6427;49.754;6.106;2022-08-16T10:26:54;26.30;73.40
12726;DHT22;6427;49.754;6.106;2022-08-16T10:29:22;26.30;73.10
12726;DHT22;6427;49.754;6.106;2022-08-16T10:31:49;26.40;73.00
12726;DHT22;6427;49.754;6.106;2022-08-16T10:34:18;26.70;70.90
12726;DHT22;6427;49.754;6.106;2022-08-16T10:36:46;26.80;70.80
12726;DHT22;6427;49.754;6.106;2022-08-16T10:39:14;26.80;70.80
12726;DHT22;6427;49.754;6.106;2022-08-16T10:41:41;26.90;71.00
12726;DHT22;6427;49.754;6.106;2022-08-16T10:44:10;27.10;69.90
12726;DHT22;6427;49.754;6.106;2022-08-16T10:46:37;27.00;69.80
12726;DHT22;6427;49.754;6.106;2022-08-16T10:49:05;27.10;68.90
12726;DHT22;6427;49.754;6.106;2022-08-16T10:51:33;27.30;68.30
12726;DHT22;6427;49.754;6.106;2022-08-16T10:54:01;27.20;68.90
12726;DHT22;6427;49.754;6.106;2022-08-16T10:56:28;27.30;67.50
12726;DHT22;6427;49.754;6.106;2022-08-16T10:58:56;27.50;66.70
12726;DHT22;6427;49.754;6.106;2022-08-16T11:01:23;27.50;65.60
12726;DHT22;6427;49.754;6.106;2022-08-16T11:03:53;27.60;64.50
12726;DHT22;6427;49.754;6.106;2022-08-16T11:06:21;27.70;64.00
12726;DHT22;6427;49.754;6.106;2022-08-16T11:08:49;27.70;64.10
12726;DHT22;6427;49.754;6.106;2022-08-16T11:11:17;27.90;64.00
12726;DHT22;6427;49.754;6.106;2022-08-16T11:13:46;27.90;63.20
12726;DHT22;6427;49.754;6.106;2022-08-16T11:16:13;28.00;62.50
12726;DHT22;6427;49.754;6.106;2022-08-16T11:18:41;28.20;60.60
12726;DHT22;6427;49.754;6.106;2022-08-16T11:21:09;28.20;60.80
12726;DHT22;6427;49.754;6.106;2022-08-16T11:23:37;28.20;60.00
12726;DHT22;6427;49.754;6.106;2022-08-16T11:26:05;28.30;60.10
12726;DHT22;6427;49.754;6.106;2022-08-16T11:28:34;28.40;59.90
12726;DHT22;6427;49.754;6.106;2022-08-16T11:31:02;28.40;58.50
12726;DHT22;6427;49.754;6.106;2022-08-16T11:33:30;28.40;58.50
12726;DHT22;6427;49.754;6.106;2022-08-16T11:35:58;28.50;57.30
12726;DHT22;6427;49.754;6.106;2022-08-16T11:38:26;28.50;57.00
12726;DHT22;6427;49.754;6.106;2022-08-16T11:40:55;28.50;56.90
12726;DHT22;6427;49.754;6.106;2022-08-16T11:43:26;28.50;57.00
12726;DHT22;6427;49.754;6.106;2022-08-16T11:45:52;28.50;57.30
12726;DHT22;6427;49.754;6.106;2022-08-16T11:48:20;28.60;58.10
12726;DHT22;6427;49.754;6.106;2022-08-16T11:50:47;28.70;58.50
12726;DHT22;6427;49.754;6.106;2022-08-16T11:53:15;29.00;58.60
12726;DHT22;6427;49.754;6.106;2022-08-16T11:55:43;29.20;57.70
12726;DHT22;6427;49.754;6.106;2022-08-16T11:58:10;29.20;57.50
12726;DHT22;6427;49.754;6.106;2022-08-16T12:00:39;29.20;57.60
12726;DHT22;6427;49.754;6.106;2022-08-16T12:03:05;29.40;56.70
12726;DHT22;6427;49.754;6.106;2022-08-16T12:05:35;29.40;56.70
12726;DHT22;6427;49.754;6.106;2022-08-16T12:08:02;29.30;56.50
12726;DHT22;6427;49.754;6.106;2022-08-16T12:10:30;29.20;56.60
12726;DHT22;6427;49.754;6.106;2022-08-16T12:12:57;29.30;56.60
12726;DHT22;6427;49.754;6.106;2022-08-16T12:15:25;29.20;56.50
12726;DHT22;6427;49.754;6.106;2022-08-16T12:17:53;29.10;56.30
12726;DHT22;6427;49.754;6.106;2022-08-16T12:20:22;28.90;56.00
12726;DHT22;6427;49.754;6.106;2022-08-16T12:22:48;28.80;56.00
12726;DHT22;6427;49.754;6.106;2022-08-16T12:25:16;28.80;56.30
12726;DHT22;6427;49.754;6.106;2022-08-16T12:27:44;28.80;56.50
12726;DHT22;6427;49.754;6.106;2022-08-16T12:30:12;28.80;56.40
12726;DHT22;6427;49.754;6.106;2022-08-16T12:32:39;28.80;56.50
12726;DHT22;6427;49.754;6.106;2022-08-16T12:35:08;29.30;55.90
12726;DHT22;6427;49.754;6.106;2022-08-16T12:37:35;29.20;55.90
12726;DHT22;6427;49.754;6.106;2022-08-16T12:40:02;29.40;55.30
12726;DHT22;6427;49.754;6.106;2022-08-16T12:42:30;29.50;54.90
12726;DHT22;6427;49.754;6.106;2022-08-16T12:44:57;29.80;54.00
12726;DHT22;6427;49.754;6.106;2022-08-16T12:47:25;29.90;53.60
12726;DHT22;6427;49.754;6.106;2022-08-16T12:50:10;30.00;52.50
12726;DHT22;6427;49.754;6.106;2022-08-16T12:52:39;30.20;52.10
12726;DHT22;6427;49.754;6.106;2022-08-16T12:55:06;30.20;52.10
12726;DHT22;6427;49.754;6.106;2022-08-16T12:57:34;30.10;52.00
12726;DHT22;6427;49.754;6.106;2022-08-16T13:00:02;30.00;52.20
12726;DHT22;6427;49.754;6.106;2022-08-16T13:02:29;30.10;52.60
12726;DHT22;6427;49.754;6.106;2022-08-16T13:04:57;30.10;51.80
12726;DHT22;6427;49.754;6.106;2022-08-16T13:07:25;30.10;51.80
12726;DHT22;6427;49.754;6.106;2022-08-16T13:09:52;30.00;51.40
12726;DHT22;6427;49.754;6.106;2022-08-16T13:12:20;30.00;51.40
12726;DHT22;6427;49.754;6.106;2022-08-16T13:14:51;30.00;51.60
12726;DHT22;6427;49.754;6.106;2022-08-16T13:17:22;30.00;51.90
12726;DHT22;6427;49.754;6.106;2022-08-16T13:19:49;30.00;51.60
12726;DHT22;6427;49.754;6.106;2022-08-16T13:22:16;30.10;51.40
12726;DHT22;6427;49.754;6.106;2022-08-16T13:24:43;30.30;50.90
12726;DHT22;6427;49.754;6.106;2022-08-16T13:27:11;30.50;50.70
12726;DHT22;6427;49.754;6.106;2022-08-16T13:29:39;30.50;50.50
12726;DHT22;6427;49.754;6.106;2022-08-16T13:32:06;30.60;50.40
12726;DHT22;6427;49.754;6.106;2022-08-16T13:34:35;30.90;48.50
12726;DHT22;6427;49.754;6.106;2022-08-16T13:37:02;30.90;48.50
12726;DHT22;6427;49.754;6.106;2022-08-16T13:39:30;30.90;48.40
12726;DHT22;6427;49.754;6.106;2022-08-16T13:41:57;31.00;48.10
12726;DHT22;6427;49.754;6.106;2022-08-16T13:44:25;31.20;48.20
12726;DHT22;6427;49.754;6.106;2022-08-16T13:46:53;31.10;48.20
12726;DHT22;6427;49.754;6.106;2022-08-16T13:49:21;31.10;48.20
12726;DHT22;6427;49.754;6.106;2022-08-16T13:51:48;31.10;48.30
12726;DHT22;6427;49.754;6.106;2022-08-16T13:54:16;31.10;47.40
12726;DHT22;6427;49.754;6.106;2022-08-16T13:56:44;31.00;47.10
12726;DHT22;6427;49.754;6.106;2022-08-16T13:59:12;30.90;47.50
12726;DHT22;6427;49.754;6.106;2022-08-16T14:01:42;30.70;47.70
12726;DHT22;6427;49.754;6.106;2022-08-16T14:04:09;30.50;47.80
12726;DHT22;6427;49.754;6.106;2022-08-16T14:06:37;30.40;47.80
12726;DHT22;6427;49.754;6.106;2022-08-16T14:09:04;30.30;47.70
12726;DHT22;6427;49.754;6.106;2022-08-16T14:11:32;30.30;48.50
12726;DHT22;6427;49.754;6.106;2022-08-16T14:13:59;30.30;48.40
12726;DHT22;6427;49.754;6.106;2022-08-16T14:16:27;30.30;48.30
12726;DHT22;6427;49.754;6.106;2022-08-16T14:18:55;30.30;48.00
12726;DHT22;6427;49.754;6.106;2022-08-16T14:21:22;30.40;48.20
12726;DHT22;6427;49.754;6.106;2022-08-16T14:23:50;30.60;48.20
12726;DHT22;6427;49.754;6.106;2022-08-16T14:26:21;30.90;47.50
12726;DHT22;6427;49.754;6.106;2022-08-16T14:28:49;30.90;47.50
12726;DHT22;6427;49.754;6.106;2022-08-16T14:31:17;31.20;46.80
12726;DHT22;6427;49.754;6.106;2022-08-16T14:33:45;31.10;46.70
12726;DHT22;6427;49.754;6.106;2022-08-16T14:36:12;31.40;46.30
12726;DHT22;6427;49.754;6.106;2022-08-16T14:38:41;31.70;45.50
12726;DHT22;6427;49.754;6.106;2022-08-16T14:41:08;31.70;45.50
12726;DHT22;6427;49.754;6.106;2022-08-16T14:43:36;31.80;45.30
12726;DHT22;6427;49.754;6.106;2022-08-16T14:46:03;32.00;45.70
12726;DHT22;6427;49.754;6.106;2022-08-16T14:48:32;32.30;44.50
12726;DHT22;6427;49.754;6.106;2022-08-16T14:50:59;32.40;44.50
12726;DHT22;6427;49.754;6.106;2022-08-16T14:53:27;32.60;43.40
12726;DHT22;6427;49.754;6.106;2022-08-16T14:55:54;32.60;42.50
12726;DHT22;6427;49.754;6.106;2022-08-16T14:58:23;32.30;43.20
12726;DHT22;6427;49.754;6.106;2022-08-16T15:00:50;32.30;43.20
12726;DHT22;6427;49.754;6.106;2022-08-16T15:03:18;32.20;43.40
12726;DHT22;6427;49.754;6.106;2022-08-16T15:05:46;32.20;43.90
12726;DHT22;6427;49.754;6.106;2022-08-16T15:08:14;32.40;44.30
12726;DHT22;6427;49.754;6.106;2022-08-16T15:10:42;32.40;44.30
12726;DHT22;6427;49.754;6.106;2022-08-16T15:13:09;32.50;43.00
12726;DHT22;6427;49.754;6.106;2022-08-16T15:15:37;32.50;42.70
12726;DHT22;6427;49.754;6.106;2022-08-16T15:18:04;32.50;42.90
12726;DHT22;6427;49.754;6.106;2022-08-16T15:20:33;32.70;42.80
12726;DHT22;6427;49.754;6.106;2022-08-16T15:23:00;32.70;42.60
12726;DHT22;6427;49.754;6.106;2022-08-16T15:25:28;32.70;42.70
12726;DHT22;6427;49.754;6.106;2022-08-16T15:27:55;32.80;42.90
12726;DHT22;6427;49.754;6.106;2022-08-16T15:30:23;33.10;41.90
12726;DHT22;6427;49.754;6.106;2022-08-16T15:32:55;33.10;41.60
12726;DHT22;6427;49.754;6.106;2022-08-16T15:35:18;33.10;41.60
12726;DHT22;6427;49.754;6.106;2022-08-16T15:37:46;33.20;42.00
12726;DHT22;6427;49.754;6.106;2022-08-16T15:40:14;33.40;41.80
12726;DHT22;6427;49.754;6.106;2022-08-16T15:42:46;33.40;41.70
12726;DHT22;6427;49.754;6.106;2022-08-16T15:45:09;33.50;41.20
12726;DHT22;6427;49.754;6.106;2022-08-16T15:47:37;33.50;40.90